Daglege Rapportar

Klikk her for oppdatering!


Detaljar i dag

27/5/18
Time         Wind Dir   Wind Spd  Wind Gust   Humidity       Temp  Raw Barom   Tot Rain Temp Out H Temp Out L  DailyRain   HourRain
                            mps        mps          %         C         mb         mm         C         C         mm         mm
0:00                0          0          0         45       15.5    1019.04    1255.00       15.5       15.5       0.00       0.00
1:00                0          0          0         45       14.4    1020.04    1255.00       15.5       14.4       0.00       0.00
2:00                0          0          0         39       14.4    1020.04    1255.00       15.5       14.3       0.00       0.00
3:00                0          0          0         39       13.9    1020.04    1255.00       15.5       13.9       0.00       0.00
4:00                0          0          0         39       13.6    1020.04    1255.00       15.5       13.6       0.00       0.00
5:00                0          0          0         41       13.3    1020.04    1255.00       15.5       13.3       0.00       0.00
6:00                0          0          0         41       13.8    1020.04    1255.00       15.5       13.2       0.00       0.00
7:00                0          0          0         42       15.3    1020.04    1255.00       15.5       13.2       0.00       0.00
8:00                0          0          0         35       17.8    1020.04    1255.00       17.8       13.2       0.00       0.00
9:00                0          0          0         35       19.0    1020.04    1255.00       19.3       13.2       0.00       0.00
10:00               0          0          0         39       19.4    1020.04    1255.00       20.0       13.2       0.00       0.00
11:00               0          0          0         43       20.2    1020.04    1255.00       20.2       13.2       0.00       0.00
12:00               0          0          0         40       21.1    1020.04    1255.00       21.4       13.2       0.00       0.00
13:00               0          0          0         33       22.7    1019.04    1255.00       22.7       13.2       0.00       0.00
14:00               0          0          0         32       23.0    1019.04    1255.00       23.1       13.2       0.00       0.00
15:00               0          0          0         30       24.6    1018.04    1255.00       24.6       13.2       0.00       0.00
16:00               0          0          0         31       25.6    1017.04    1255.00       25.7       13.2       0.00       0.00
17:00               0          0          0         30       26.2    1017.04    1255.00       26.5       13.2       0.00       0.00
18:00               0          0          0         29       25.8    1016.04    1255.00       26.5       13.2       0.00       0.00
19:00               0          0          0         31       24.7    1016.04    1255.00       26.7       13.2       0.00       0.00
20:00               0          0          0         32       21.9    1016.04    1255.00       26.7       13.2       0.00       0.00
21:00               0          0          0         41       20.6    1016.04    1255.00       26.7       13.2       0.00       0.00
22:00               0          0          0         43       19.3    1016.04    1255.00       26.7       13.2       0.00       0.00

 


Detaljar i gr

26/5/18
Time         Wind Dir   Wind Spd  Wind Gust   Humidity       Temp  Raw Barom   Tot Rain Temp Out H Temp Out L  DailyRain   HourRain
                            mps        mps          %         C         mb         mm         C         C         mm         mm
0:00                0          0          0         45       15.5    1020.04    1255.00       15.5       15.5       0.00       0.00
1:00                0          0          0         50       14.2    1021.04    1255.00       15.5       14.2       0.00       0.00
2:00                0          0          0         54       13.1    1021.04    1255.00       15.5       13.1       0.00       0.00
3:00                0          0          0         59       12.4    1021.04    1255.00       15.5       12.4       0.00       0.00
4:00                0          0          0         65       11.8    1021.04    1255.00       15.5       11.8       0.00       0.00
5:00                0          0          0         67       11.4    1021.04    1255.00       15.5       11.3       0.00       0.00
6:00                0          0          0         72       11.1    1022.04    1255.00       15.5       11.0       0.00       0.00
7:00                0          0          0         71       13.6    1022.04    1255.00       15.5       11.0       0.00       0.00
8:00                0          0          0         63       14.8    1022.04    1255.00       15.5       11.0       0.00       0.00
9:00                0          0          0         46       17.7    1021.04    1255.00       17.7       11.0       0.00       0.00
10:00               0          0          0         45       17.9    1021.04    1255.00       18.3       11.0       0.00       0.00
11:00               0          0          0         45       18.6    1021.04    1255.00       18.7       11.0       0.00       0.00
12:00               0          0          0         37       19.9    1021.04    1255.00       19.9       11.0       0.00       0.00
13:00               0          0          0         42       20.2    1021.04    1255.00       21.5       11.0       0.00       0.00
14:00               0          0          0         36       22.0    1020.04    1255.00       22.0       11.0       0.00       0.00
15:00               0          0          0         32       23.1    1020.04    1255.00       23.3       11.0       0.00       0.00
16:00               0          0          0         31       24.1    1019.04    1255.00       24.8       11.0       0.00       0.00
17:00               0          0          0         31       24.3    1019.04    1255.00       24.8       11.0       0.00       0.00
18:00               0          0          0         33       24.8    1019.04    1255.00       25.2       11.0       0.00       0.00
19:00               0          0          0         34       23.8    1018.04    1255.00       25.2       11.0       0.00       0.00
20:00               0          0          0         36       20.8    1018.04    1255.00       25.2       11.0       0.00       0.00
21:00               0          0          0         42       18.9    1018.04    1255.00       25.2       11.0       0.00       0.00
22:00               0          0          0         43       17.7    1019.04    1255.00       25.2       11.0       0.00       0.00
23:00               0          0          0         45       16.3    1019.04    1255.00       25.2       11.0       0.00       0.00